Time;durP1;ratioP1;P1;durP2;ratioP2;P2;SDS_P1;SDS_P2;PMS_P1;PMS_P2;Temp;Humidity;BMP_temperature;BMP_pressure;BME280_temperature;BME280_humidity;BME280_pressure;Samples;Min_cycle;Max_cycle;Signal;HPM_P1;HPM_P2
2021/07/28 00:01:20;;;;;;;1.92;1.83;;;;;;;;;;4935647;29;20199;-86
2021/07/28 00:03:48;;;;;;;1.77;1.67;;;;;;;;;;4935898;29;20542;-85
2021/07/28 00:06:21;;;;;;;1.95;1.85;;;;;;;;;;4935723;29;20210;-85
2021/07/28 00:08:49;;;;;;;2.10;1.90;;;;;;;;;;4935596;29;20201;-86
2021/07/28 00:11:19;;;;;;;1.77;1.67;;;;;;;;;;4935151;29;20214;-86
2021/07/28 00:13:47;;;;;;;2.95;2.75;;;;;;;;;;4919879;29;20191;-86
2021/07/28 00:16:15;;;;;;;2.17;2.00;;;;;;;;;;4925109;29;20228;-85
2021/07/28 00:18:52;;;;;;;2.30;2.10;;;;;;;;;;4936118;29;20304;-84
2021/07/28 00:24:05;;;;;;;2.40;2.30;;;;;;;;;;4935807;29;20196;-86
2021/07/28 00:26:34;;;;;;;2.45;2.25;;;;;;;;;;4935845;29;20200;-85
2021/07/28 00:29:01;;;;;;;2.05;1.95;;;;;;;;;;4935498;29;20222;-86
2021/07/28 00:31:29;;;;;;;1.83;1.73;;;;;;;;;;4935685;29;20190;-85
2021/07/28 00:33:56;;;;;;;2.15;1.95;;;;;;;;;;4935555;29;20206;-85
2021/07/28 00:36:24;;;;;;;2.20;2.00;;;;;;;;;;4935345;29;20186;-85
2021/07/28 00:38:51;;;;;;;4.15;2.50;;;;;;;;;;4937325;29;20296;-85
2021/07/28 00:41:19;;;;;;;2.28;2.08;;;;;;;;;;4939220;29;20193;-86
2021/07/28 00:43:47;;;;;;;2.22;2.05;;;;;;;;;;4938917;29;20190;-86
2021/07/28 00:46:15;;;;;;;2.72;2.53;;;;;;;;;;4938712;29;20182;-87
2021/07/28 00:48:42;;;;;;;2.90;2.70;;;;;;;;;;4938997;29;20190;-85
2021/07/28 00:51:11;;;;;;;3.17;2.45;;;;;;;;;;4939166;29;20232;-86
2021/07/28 00:53:39;;;;;;;2.20;2.10;;;;;;;;;;4939650;29;20253;-85
2021/07/28 00:56:06;;;;;;;2.30;2.10;;;;;;;;;;4939128;29;20216;-85
2021/07/28 00:58:34;;;;;;;2.10;1.90;;;;;;;;;;4938775;29;20214;-85
2021/07/28 01:01:02;;;;;;;2.35;2.15;;;;;;;;;;4939284;29;20217;-86
2021/07/28 01:03:30;;;;;;;2.60;2.40;;;;;;;;;;4938836;29;20194;-85
2021/07/28 01:05:58;;;;;;;2.08;1.90;;;;;;;;;;4939460;29;20609;-85
2021/07/28 01:08:26;;;;;;;3.13;2.08;;;;;;;;;;4938812;29;20197;-85
2021/07/28 01:10:55;;;;;;;2.05;1.95;;;;;;;;;;4940817;29;20232;-85
2021/07/28 01:13:27;;;;;;;2.53;2.30;;;;;;;;;;4941252;29;20186;-85
2021/07/28 01:15:59;;;;;;;1.90;1.73;;;;;;;;;;4940252;29;20198;-85
2021/07/28 01:18:28;;;;;;;2.80;2.60;;;;;;;;;;4939126;29;20217;-86
2021/07/28 01:20:56;;;;;;;2.40;1.50;;;;;;;;;;4939222;29;20730;-86
2021/07/28 01:23:26;;;;;;;2.08;1.88;;;;;;;;;;4939290;29;20584;-85
2021/07/28 01:25:54;;;;;;;2.38;2.17;;;;;;;;;;4940439;29;20190;-84
2021/07/28 01:28:24;;;;;;;2.85;2.63;;;;;;;;;;4940563;29;20198;-85
2021/07/28 01:31:00;;;;;;;1.60;1.50;;;;;;;;;;4941442;29;20230;-85
2021/07/28 01:33:29;;;;;;;2.13;1.92;;;;;;;;;;4942320;29;20186;-85
2021/07/28 01:35:57;;;;;;;2.10;1.95;;;;;;;;;;4943018;29;20190;-86
2021/07/28 01:38:26;;;;;;;2.25;1.70;;;;;;;;;;4942039;29;20241;-86
2021/07/28 01:40:55;;;;;;;2.45;2.15;;;;;;;;;;4938161;29;20354;-85
2021/07/28 01:43:23;;;;;;;1.60;1.50;;;;;;;;;;4938628;29;20641;-85
2021/07/28 01:45:51;;;;;;;2.10;1.92;;;;;;;;;;4937555;29;20194;-86
2021/07/28 01:48:18;;;;;;;1.48;1.38;;;;;;;;;;4937922;29;20217;-86
2021/07/28 01:50:46;;;;;;;1.77;1.67;;;;;;;;;;4936911;29;20237;-85
2021/07/28 01:53:15;;;;;;;1.85;1.75;;;;;;;;;;4936587;29;20255;-85
2021/07/28 01:55:44;;;;;;;1.70;1.60;;;;;;;;;;4937402;29;20190;-87
2021/07/28 01:58:12;;;;;;;2.03;1.92;;;;;;;;;;4936779;29;20562;-85
2021/07/28 02:00:41;;;;;;;1.40;1.30;;;;;;;;;;4937280;29;20260;-84
2021/07/28 02:03:09;;;;;;;1.80;1.70;;;;;;;;;;4937426;29;20206;-87
2021/07/28 02:05:38;;;;;;;1.90;1.77;;;;;;;;;;4937103;29;20671;-86
2021/07/28 02:08:07;;;;;;;2.03;1.92;;;;;;;;;;4936910;29;20193;-85
2021/07/28 02:10:37;;;;;;;2.05;1.92;;;;;;;;;;4937223;29;20277;-85
2021/07/28 02:13:06;;;;;;;2.60;2.38;;;;;;;;;;4937113;29;20751;-85
2021/07/28 02:15:35;;;;;;;1.83;1.73;;;;;;;;;;4938106;29;20190;-88
2021/07/28 02:18:04;;;;;;;1.85;1.75;;;;;;;;;;4942301;29;20208;-88
2021/07/28 02:20:33;;;;;;;1.85;1.73;;;;;;;;;;4943091;29;20232;-89
2021/07/28 02:23:00;;;;;;;1.83;1.73;;;;;;;;;;4940416;29;20209;-88
2021/07/28 02:25:28;;;;;;;2.42;2.22;;;;;;;;;;4942318;29;20637;-90
2021/07/28 02:27:56;;;;;;;1.83;1.58;;;;;;;;;;4926975;29;20214;-89
2021/07/28 02:30:25;;;;;;;2.10;2.00;;;;;;;;;;4919078;29;20237;-88
2021/07/28 02:32:54;;;;;;;1.80;1.70;;;;;;;;;;4921805;29;20200;-90
2021/07/28 02:35:23;;;;;;;2.90;2.58;;;;;;;;;;4937607;29;20641;-92
2021/07/28 02:37:52;;;;;;;2.28;2.10;;;;;;;;;;4936187;29;20214;-91
2021/07/28 02:40:21;;;;;;;2.63;2.38;;;;;;;;;;4936822;29;20317;-91
2021/07/28 02:42:49;;;;;;;2.95;2.75;;;;;;;;;;4936492;29;20776;-91
2021/07/28 02:45:17;;;;;;;2.50;2.25;;;;;;;;;;4936303;29;20192;-90
2021/07/28 02:47:46;;;;;;;2.03;1.92;;;;;;;;;;4917718;29;20208;-91
2021/07/28 02:50:14;;;;;;;2.28;2.08;;;;;;;;;;4917203;29;20245;-90
2021/07/28 02:52:43;;;;;;;2.03;1.92;;;;;;;;;;4933586;29;20277;-90
2021/07/28 02:55:12;;;;;;;2.30;2.10;;;;;;;;;;4936952;29;20202;-89
2021/07/28 02:57:42;;;;;;;2.50;2.25;;;;;;;;;;4936746;29;20196;-90
2021/07/28 03:00:11;;;;;;;2.35;2.15;;;;;;;;;;4936385;29;20230;-89
2021/07/28 03:02:40;;;;;;;1.63;1.52;;;;;;;;;;4936333;29;20190;-90
2021/07/28 03:05:12;;;;;;;1.83;1.73;;;;;;;;;;4936564;29;20210;-90
2021/07/28 03:07:40;;;;;;;2.33;2.13;;;;;;;;;;4937251;29;20218;-89
2021/07/28 03:10:09;;;;;;;3.17;2.88;;;;;;;;;;4936979;29;20304;-90
2021/07/28 03:12:37;;;;;;;1.88;1.77;;;;;;;;;;4935983;29;20190;-90
2021/07/28 03:15:08;;;;;;;2.20;2.00;;;;;;;;;;4936522;29;20182;-90
2021/07/28 03:17:35;;;;;;;2.42;2.22;;;;;;;;;;4936381;29;20191;-85
2021/07/28 03:20:03;;;;;;;2.60;2.40;;;;;;;;;;4935511;29;20233;-84
2021/07/28 03:22:32;;;;;;;2.45;2.25;;;;;;;;;;4935826;29;20657;-86
2021/07/28 03:25:00;;;;;;;2.08;1.95;;;;;;;;;;4935676;29;20773;-86
2021/07/28 03:27:27;;;;;;;1.80;1.70;;;;;;;;;;4936587;29;20201;-85
2021/07/28 03:29:54;;;;;;;2.55;2.35;;;;;;;;;;4935896;29;20593;-85
2021/07/28 03:32:22;;;;;;;1.95;1.85;;;;;;;;;;4935671;29;20201;-85
2021/07/28 03:34:49;;;;;;;2.92;2.45;;;;;;;;;;4936564;29;20190;-86
2021/07/28 03:37:16;;;;;;;2.50;2.30;;;;;;;;;;4936277;29;20205;-86
2021/07/28 03:39:45;;;;;;;2.42;2.22;;;;;;;;;;4936041;29;20226;-90
2021/07/28 03:42:13;;;;;;;2.33;2.13;;;;;;;;;;4934894;29;20210;-85
2021/07/28 03:44:40;;;;;;;2.78;2.58;;;;;;;;;;4933827;29;20192;-85
2021/07/28 03:47:08;;;;;;;3.47;2.90;;;;;;;;;;4934009;29;20209;-85
2021/07/28 03:49:35;;;;;;;2.58;2.38;;;;;;;;;;4934306;29;20234;-85
2021/07/28 03:52:03;;;;;;;3.00;2.63;;;;;;;;;;4934440;29;20210;-83
2021/07/28 03:54:30;;;;;;;2.58;2.38;;;;;;;;;;4934176;29;20896;-85
2021/07/28 03:57:00;;;;;;;3.13;2.83;;;;;;;;;;4934805;29;20587;-85
2021/07/28 03:59:27;;;;;;;3.15;2.30;;;;;;;;;;4935738;29;20227;-86
2021/07/28 04:01:55;;;;;;;2.25;2.13;;;;;;;;;;4936081;29;20201;-85
2021/07/28 04:04:22;;;;;;;2.40;2.05;;;;;;;;;;4935813;29;20193;-86
2021/07/28 04:06:50;;;;;;;3.88;3.30;;;;;;;;;;4935479;29;20658;-86
2021/07/28 04:09:17;;;;;;;3.00;2.72;;;;;;;;;;4935471;29;20232;-85
2021/07/28 04:11:45;;;;;;;3.30;3.00;;;;;;;;;;4935746;29;20192;-85
2021/07/28 04:14:13;;;;;;;2.83;2.63;;;;;;;;;;4940110;29;20245;-86
2021/07/28 04:16:41;;;;;;;2.85;2.63;;;;;;;;;;4941909;29;20209;-85
2021/07/28 04:19:08;;;;;;;2.92;2.38;;;;;;;;;;4942329;29;20225;-85
2021/07/28 04:21:36;;;;;;;5.00;2.35;;;;;;;;;;4942097;29;20252;-84
2021/07/28 04:24:03;;;;;;;2.63;2.42;;;;;;;;;;4942284;29;20205;-85
2021/07/28 04:26:31;;;;;;;2.85;2.65;;;;;;;;;;4941396;29;20201;-85
2021/07/28 04:28:58;;;;;;;2.72;2.50;;;;;;;;;;4941601;29;20692;-85
2021/07/28 04:31:27;;;;;;;2.85;2.63;;;;;;;;;;4941754;29;20197;-84
2021/07/28 04:33:54;;;;;;;2.95;2.75;;;;;;;;;;4941473;29;20209;-86
2021/07/28 04:36:22;;;;;;;2.90;2.70;;;;;;;;;;4941664;29;20201;-84
2021/07/28 04:38:49;;;;;;;2.97;2.67;;;;;;;;;;4941823;29;20190;-85
2021/07/28 04:41:17;;;;;;;3.00;2.80;;;;;;;;;;4941779;29;20233;-84
2021/07/28 04:43:44;;;;;;;2.97;2.67;;;;;;;;;;4943484;29;20198;-85
2021/07/28 04:46:12;;;;;;;2.83;2.63;;;;;;;;;;4944188;29;20220;-86
2021/07/28 04:48:40;;;;;;;3.53;2.50;;;;;;;;;;4941989;29;20190;-85
2021/07/28 04:51:08;;;;;;;2.70;2.50;;;;;;;;;;4941600;29;20235;-84
2021/07/28 04:53:35;;;;;;;2.65;2.45;;;;;;;;;;4941799;29;20194;-85
2021/07/28 04:56:03;;;;;;;3.80;3.45;;;;;;;;;;4942708;29;20200;-85
2021/07/28 04:58:30;;;;;;;2.33;2.13;;;;;;;;;;4943417;29;20190;-85
2021/07/28 05:00:57;;;;;;;2.65;2.45;;;;;;;;;;4942606;29;20229;-85
2021/07/28 05:03:25;;;;;;;2.97;2.72;;;;;;;;;;4943703;29;20196;-84
2021/07/28 05:05:54;;;;;;;2.40;2.20;;;;;;;;;;4943861;29;20273;-84
2021/07/28 05:08:21;;;;;;;2.72;2.53;;;;;;;;;;4944159;29;20194;-85
2021/07/28 05:10:49;;;;;;;2.70;2.50;;;;;;;;;;4944110;29;20221;-84
2021/07/28 05:13:16;;;;;;;2.72;2.53;;;;;;;;;;4944032;29;20190;-84
2021/07/28 05:15:44;;;;;;;3.30;2.30;;;;;;;;;;4944092;29;20216;-84
2021/07/28 05:18:12;;;;;;;2.47;2.28;;;;;;;;;;4944023;29;20190;-86
2021/07/28 05:20:39;;;;;;;2.60;2.40;;;;;;;;;;4942342;29;20230;-85
2021/07/28 05:23:08;;;;;;;3.15;2.85;;;;;;;;;;4942676;29;20206;-84
2021/07/28 05:25:36;;;;;;;2.63;2.42;;;;;;;;;;4940524;29;20198;-85
2021/07/28 05:28:05;;;;;;;2.17;2.08;;;;;;;;;;4940869;29;20190;-84
2021/07/28 05:30:32;;;;;;;1.77;1.67;;;;;;;;;;4940759;29;20603;-85
2021/07/28 05:33:00;;;;;;;2.70;2.50;;;;;;;;;;4940592;29;20560;-85
2021/07/28 05:35:27;;;;;;;2.28;2.08;;;;;;;;;;4940305;29;20603;-84
2021/07/28 05:37:58;;;;;;;3.10;2.90;;;;;;;;;;4940586;29;20600;-86
2021/07/28 05:40:27;;;;;;;3.85;3.55;;;;;;;;;;4940213;29;20652;-85
2021/07/28 05:42:55;;;;;;;3.17;2.88;;;;;;;;;;4941878;29;20190;-84
2021/07/28 05:45:24;;;;;;;2.92;2.50;;;;;;;;;;4941633;29;20198;-85
2021/07/28 05:47:51;;;;;;;2.70;2.30;;;;;;;;;;4941989;29;20194;-83
2021/07/28 05:50:19;;;;;;;2.85;2.63;;;;;;;;;;4941283;29;20241;-84
2021/07/28 05:52:46;;;;;;;3.42;2.65;;;;;;;;;;4941237;29;20206;-84
2021/07/28 05:55:14;;;;;;;2.53;2.33;;;;;;;;;;4941357;29;20201;-84
2021/07/28 05:57:43;;;;;;;2.28;2.17;;;;;;;;;;4939604;29;20205;-83
2021/07/28 06:00:13;;;;;;;3.88;2.92;;;;;;;;;;4939342;29;20240;-84
2021/07/28 06:02:40;;;;;;;3.42;3.10;;;;;;;;;;4940407;29;20206;-84
2021/07/28 06:05:09;;;;;;;3.22;2.88;;;;;;;;;;4939801;29;20224;-83
2021/07/28 06:07:36;;;;;;;3.08;2.75;;;;;;;;;;4939757;29;20198;-84
2021/07/28 06:10:04;;;;;;;3.50;3.20;;;;;;;;;;4940345;29;20230;-83
2021/07/28 06:12:32;;;;;;;4.95;3.72;;;;;;;;;;4941205;29;20200;-83
2021/07/28 06:15:01;;;;;;;4.38;3.83;;;;;;;;;;4941053;29;20213;-84
2021/07/28 06:17:28;;;;;;;5.22;3.47;;;;;;;;;;4941173;29;20190;-83
2021/07/28 06:19:55;;;;;;;3.55;3.25;;;;;;;;;;4940338;29;20229;-84
2021/07/28 06:22:23;;;;;;;4.38;3.97;;;;;;;;;;4941378;29;20216;-84
2021/07/28 06:24:51;;;;;;;5.53;3.45;;;;;;;;;;4942089;29;20214;-84
2021/07/28 06:27:18;;;;;;;3.67;3.38;;;;;;;;;;4939917;29;20233;-83
2021/07/28 06:29:46;;;;;;;2.50;2.30;;;;;;;;;;4940177;29;20259;-84
2021/07/28 06:32:15;;;;;;;4.22;3.40;;;;;;;;;;4938705;29;20590;-83
2021/07/28 06:34:42;;;;;;;2.35;2.25;;;;;;;;;;4938985;29;20182;-84
2021/07/28 06:37:09;;;;;;;3.20;2.90;;;;;;;;;;4939079;29;20197;-83
2021/07/28 06:39:37;;;;;;;3.20;2.95;;;;;;;;;;4939296;29;20218;-83
2021/07/28 06:42:05;;;;;;;5.57;4.05;;;;;;;;;;4939755;29;20206;-84
2021/07/28 06:44:32;;;;;;;4.00;3.70;;;;;;;;;;4939587;29;20194;-83
2021/07/28 06:46:59;;;;;;;6.13;4.25;;;;;;;;;;4939273;29;20290;-83
2021/07/28 06:49:28;;;;;;;4.00;3.15;;;;;;;;;;4938543;29;20234;-83
2021/07/28 06:51:56;;;;;;;4.95;4.45;;;;;;;;;;4938368;29;20232;-83
2021/07/28 06:54:23;;;;;;;3.63;3.33;;;;;;;;;;4939507;29;20208;-83
2021/07/28 06:56:50;;;;;;;3.35;3.10;;;;;;;;;;4938900;29;20210;-83
2021/07/28 06:59:18;;;;;;;5.45;4.90;;;;;;;;;;4938781;29;20233;-83
2021/07/28 07:01:46;;;;;;;4.82;4.13;;;;;;;;;;4938968;29;20226;-83
2021/07/28 07:04:13;;;;;;;3.70;3.40;;;;;;;;;;4938392;29;20202;-85
2021/07/28 07:06:42;;;;;;;4.30;3.90;;;;;;;;;;4938480;29;20190;-84
2021/07/28 07:09:10;;;;;;;4.63;4.28;;;;;;;;;;4938346;29;20232;-85
2021/07/28 07:11:37;;;;;;;3.42;3.13;;;;;;;;;;4937478;29;20201;-85
2021/07/28 07:14:04;;;;;;;3.55;3.25;;;;;;;;;;4938123;29;20200;-83
2021/07/28 07:16:32;;;;;;;3.40;3.10;;;;;;;;;;4937955;29;20637;-83
2021/07/28 07:19:00;;;;;;;3.38;3.10;;;;;;;;;;4937671;29;20232;-82
2021/07/28 07:21:27;;;;;;;2.90;2.70;;;;;;;;;;4937594;29;20212;-83
2021/07/28 07:23:56;;;;;;;5.35;3.38;;;;;;;;;;4937468;29;20206;-82
2021/07/28 07:26:23;;;;;;;3.58;3.25;;;;;;;;;;4937905;29;20292;-83
2021/07/28 07:28:51;;;;;;;5.00;3.83;;;;;;;;;;4937648;29;20201;-83
2021/07/28 07:31:18;;;;;;;3.50;3.10;;;;;;;;;;4938046;29;20406;-83
2021/07/28 07:33:46;;;;;;;3.30;3.00;;;;;;;;;;4938516;29;20202;-83
2021/07/28 07:36:17;;;;;;;3.33;3.03;;;;;;;;;;4937303;29;20212;-83
2021/07/28 07:38:45;;;;;;;3.10;2.90;;;;;;;;;;4937748;29;20233;-83
2021/07/28 07:41:14;;;;;;;3.63;3.05;;;;;;;;;;4937860;29;20205;-83
2021/07/28 07:43:41;;;;;;;3.72;2.95;;;;;;;;;;4937847;29;20230;-83
2021/07/28 07:46:09;;;;;;;5.57;3.08;;;;;;;;;;4937010;29;20206;-82
2021/07/28 07:48:36;;;;;;;3.08;2.67;;;;;;;;;;4936962;29;20190;-83
2021/07/28 07:51:04;;;;;;;3.40;3.15;;;;;;;;;;4937188;29;20233;-82
2021/07/28 07:53:31;;;;;;;3.38;3.08;;;;;;;;;;4937579;29;20186;-83
2021/07/28 07:55:59;;;;;;;3.40;3.10;;;;;;;;;;4938119;29;20692;-82
2021/07/28 07:58:28;;;;;;;3.05;2.83;;;;;;;;;;4936399;29;20203;-82
2021/07/28 08:00:55;;;;;;;3.45;3.15;;;;;;;;;;4936823;29;20688;-82
2021/07/28 08:03:22;;;;;;;4.20;3.80;;;;;;;;;;4937354;29;20234;-83
2021/07/28 08:05:50;;;;;;;3.85;2.80;;;;;;;;;;4937098;29;20213;-83
2021/07/28 08:08:17;;;;;;;3.17;2.90;;;;;;;;;;4936925;29;20197;-83
2021/07/28 08:10:44;;;;;;;3.15;2.85;;;;;;;;;;4936889;29;20230;-82
2021/07/28 08:13:12;;;;;;;3.35;3.05;;;;;;;;;;4936655;29;20186;-83
2021/07/28 08:15:41;;;;;;;3.55;3.25;;;;;;;;;;4936578;29;20190;-83
2021/07/28 08:18:09;;;;;;;2.92;2.72;;;;;;;;;;4936963;29;20197;-82
2021/07/28 08:20:37;;;;;;;4.55;3.20;;;;;;;;;;4936603;29;20656;-83
2021/07/28 08:23:05;;;;;;;6.32;3.25;;;;;;;;;;4935814;29;20556;-82
2021/07/28 08:25:32;;;;;;;3.30;3.10;;;;;;;;;;4936239;29;20190;-83
2021/07/28 08:28:00;;;;;;;2.95;2.75;;;;;;;;;;4936235;29;20217;-82
2021/07/28 08:30:28;;;;;;;3.45;3.17;;;;;;;;;;4936319;29;20225;-83
2021/07/28 08:32:56;;;;;;;2.90;2.70;;;;;;;;;;4936255;29;20709;-83
2021/07/28 08:35:24;;;;;;;3.38;2.88;;;;;;;;;;4935437;29;20217;-82
2021/07/28 08:37:51;;;;;;;3.42;2.72;;;;;;;;;;4935429;29;20194;-83
2021/07/28 08:40:19;;;;;;;2.90;2.70;;;;;;;;;;4935572;29;20603;-83
2021/07/28 08:42:49;;;;;;;3.08;2.88;;;;;;;;;;4934726;29;20232;-81
2021/07/28 08:45:18;;;;;;;3.90;3.50;;;;;;;;;;4918831;29;20554;-82
2021/07/28 08:47:46;;;;;;;3.28;3.03;;;;;;;;;;4935380;29;20186;-82
2021/07/28 08:50:16;;;;;;;2.85;2.65;;;;;;;;;;4934860;29;20234;-82
2021/07/28 08:52:43;;;;;;;3.47;3.17;;;;;;;;;;4935187;29;20577;-82
2021/07/28 08:55:12;;;;;;;3.28;3.05;;;;;;;;;;4935318;29;20196;-83
2021/07/28 08:57:39;;;;;;;3.40;3.10;;;;;;;;;;4934393;29;20578;-82
2021/07/28 09:00:09;;;;;;;3.45;3.25;;;;;;;;;;4936491;29;20634;-82
2021/07/28 09:02:36;;;;;;;2.92;2.72;;;;;;;;;;4938725;29;20190;-82
2021/07/28 09:05:05;;;;;;;3.20;2.97;;;;;;;;;;4938771;29;20205;-83
2021/07/28 09:07:40;;;;;;;3.15;2.90;;;;;;;;;;4938516;29;20206;-82
2021/07/28 09:10:12;;;;;;;3.15;2.72;;;;;;;;;;4938481;29;20284;-82
2021/07/28 09:12:42;;;;;;;3.67;3.28;;;;;;;;;;4938363;29;20186;-83
2021/07/28 09:15:14;;;;;;;3.00;2.75;;;;;;;;;;4938646;29;20194;-82
2021/07/28 09:17:47;;;;;;;5.40;3.38;;;;;;;;;;4938894;29;20198;-82
2021/07/28 09:20:24;;;;;;;3.30;2.88;;;;;;;;;;4938868;29;20257;-83
2021/07/28 09:22:54;;;;;;;3.67;3.38;;;;;;;;;;4938383;29;20271;-83
2021/07/28 09:25:28;;;;;;;3.00;2.80;;;;;;;;;;4919011;29;20673;-83
2021/07/28 09:27:56;;;;;;;3.20;2.90;;;;;;;;;;4957593;29;20189;-82
2021/07/28 09:30:34;;;;;;;3.75;3.25;;;;;;;;;;4957612;28;20229;-82
2021/07/28 09:33:07;;;;;;;3.72;3.33;;;;;;;;;;4957858;29;20280;-83
2021/07/28 09:36:17;;;;;;;3.83;3.45;;;;;;;;;;4957719;29;20208;-82
2021/07/28 09:38:46;;;;;;;5.03;4.00;;;;;;;;;;4957295;28;20208;-82
2021/07/28 09:41:21;;;;;;;4.22;3.90;;;;;;;;;;4957633;29;20189;-83
2021/07/28 09:43:52;;;;;;;2.90;2.70;;;;;;;;;;4958318;29;20211;-82
2021/07/28 09:46:31;;;;;;;3.25;3.05;;;;;;;;;;4958400;29;20192;-82
2021/07/28 09:49:01;;;;;;;3.70;3.40;;;;;;;;;;4951887;29;20236;-83
2021/07/28 09:51:33;;;;;;;3.80;3.50;;;;;;;;;;4938361;29;20645;-83
2021/07/28 09:54:04;;;;;;;3.88;3.58;;;;;;;;;;4938502;29;20182;-84
2021/07/28 09:56:46;;;;;;;4.25;3.85;;;;;;;;;;4938888;29;20182;-84
2021/07/28 09:59:14;;;;;;;4.55;4.15;;;;;;;;;;4938232;29;20234;-83
2021/07/28 10:01:43;;;;;;;4.20;3.88;;;;;;;;;;4938937;29;20182;-82
2021/07/28 10:04:13;;;;;;;4.35;3.95;;;;;;;;;;4938074;29;20226;-83
2021/07/28 10:06:43;;;;;;;3.92;3.63;;;;;;;;;;4936938;29;20209;-84
2021/07/28 10:09:16;;;;;;;3.47;3.17;;;;;;;;;;4938053;29;20232;-82
2021/07/28 10:11:47;;;;;;;3.38;3.10;;;;;;;;;;4936761;29;20205;-83
2021/07/28 10:14:18;;;;;;;3.90;3.50;;;;;;;;;;4938899;29;20182;-82
2021/07/28 10:16:46;;;;;;;3.85;3.55;;;;;;;;;;4938437;29;20660;-83
2021/07/28 10:19:14;;;;;;;3.97;3.60;;;;;;;;;;4938783;29;20240;-83
2021/07/28 10:21:42;;;;;;;4.70;4.30;;;;;;;;;;4937838;29;20671;-83
2021/07/28 10:24:12;;;;;;;4.20;3.80;;;;;;;;;;4937565;29;20700;-84
2021/07/28 10:26:42;;;;;;;4.45;4.15;;;;;;;;;;4938559;29;20198;-83
2021/07/28 10:29:10;;;;;;;4.88;4.35;;;;;;;;;;4937634;29;20217;-83
2021/07/28 10:31:49;;;;;;;4.03;3.53;;;;;;;;;;4936936;29;20189;-83
2021/07/28 10:34:25;;;;;;;6.25;4.57;;;;;;;;;;4925093;29;20217;-82
2021/07/28 10:36:54;;;;;;;5.00;4.47;;;;;;;;;;4929947;29;20192;-84
2021/07/28 10:39:44;;;;;;;4.03;3.72;;;;;;;;;;4918765;29;20592;-83
2021/07/28 10:42:16;;;;;;;4.10;3.70;;;;;;;;;;4918536;29;20669;-83
2021/07/28 10:45:04;;;;;;;3.85;3.55;;;;;;;;;;4922742;29;20210;-84
2021/07/28 10:47:39;;;;;;;3.60;3.25;;;;;;;;;;4937923;29;20193;-84
2021/07/28 10:50:08;;;;;;;3.33;3.03;;;;;;;;;;4938416;29;20581;-84
2021/07/28 10:52:44;;;;;;;4.25;3.90;;;;;;;;;;4939383;29;20611;-84
2021/07/28 10:55:18;;;;;;;5.78;4.15;;;;;;;;;;4938626;29;20623;-84
2021/07/28 10:58:25;;;;;;;2.88;2.67;;;;;;;;;;4944839;29;20189;-85
2021/07/28 11:00:58;;;;;;;3.33;3.13;;;;;;;;;;4943783;29;20217;-84
2021/07/28 11:03:37;;;;;;;3.95;3.65;;;;;;;;;;4956558;29;20272;-82
2021/07/28 11:06:25;;;;;;;4.00;3.70;;;;;;;;;;4956545;29;20205;-84
2021/07/28 11:08:54;;;;;;;3.50;3.20;;;;;;;;;;4953385;29;20273;-84
2021/07/28 11:11:30;;;;;;;3.70;3.50;;;;;;;;;;4937694;29;20186;-84
2021/07/28 11:14:04;;;;;;;5.72;4.07;;;;;;;;;;4937489;29;20210;-84
2021/07/28 11:16:32;;;;;;;3.78;3.42;;;;;;;;;;4938439;29;20190;-84
2021/07/28 11:19:00;;;;;;;3.97;3.67;;;;;;;;;;4936634;29;20222;-86
2021/07/28 11:21:29;;;;;;;3.70;3.40;;;;;;;;;;4937054;29;20657;-83
2021/07/28 11:24:02;;;;;;;2.90;2.70;;;;;;;;;;4936288;29;20186;-84
2021/07/28 11:26:36;;;;;;;3.47;3.28;;;;;;;;;;4938018;29;20205;-84
2021/07/28 11:29:07;;;;;;;4.20;3.85;;;;;;;;;;4936385;29;20220;-83
2021/07/28 11:31:38;;;;;;;3.67;3.42;;;;;;;;;;4936347;29;20205;-83
2021/07/28 11:34:17;;;;;;;3.03;2.80;;;;;;;;;;4936873;29;20192;-84
2021/07/28 11:36:55;;;;;;;2.92;2.72;;;;;;;;;;4936798;29;20190;-84
2021/07/28 11:39:23;;;;;;;2.80;2.60;;;;;;;;;;4936089;29;20221;-83
2021/07/28 11:42:02;;;;;;;2.92;2.72;;;;;;;;;;4936313;29;20206;-82
2021/07/28 11:44:30;;;;;;;2.88;2.67;;;;;;;;;;4944415;29;20224;-85
2021/07/28 11:46:57;;;;;;;3.67;3.33;;;;;;;;;;4956844;29;20186;-84
2021/07/28 11:49:27;;;;;;;2.83;2.63;;;;;;;;;;4956571;28;20626;-84
2021/07/28 11:52:00;;;;;;;3.38;3.17;;;;;;;;;;4954838;29;20205;-83
2021/07/28 11:54:32;;;;;;;3.40;3.10;;;;;;;;;;4955637;29;20196;-85
2021/07/28 11:57:01;;;;;;;3.35;3.05;;;;;;;;;;4955726;29;20209;-85
2021/07/28 11:59:31;;;;;;;3.15;2.75;;;;;;;;;;4954826;28;20274;-84
2021/07/28 12:02:00;;;;;;;2.58;2.38;;;;;;;;;;4954722;29;20201;-84
2021/07/28 12:04:30;;;;;;;2.30;2.20;;;;;;;;;;4955299;29;20219;-86
2021/07/28 12:07:00;;;;;;;2.85;2.30;;;;;;;;;;4949481;29;20220;-83
2021/07/28 12:09:29;;;;;;;2.42;2.30;;;;;;;;;;4953291;28;20280;-82
2021/07/28 12:12:01;;;;;;;1.85;1.75;;;;;;;;;;4953759;29;20707;-83
2021/07/28 12:14:36;;;;;;;2.20;2.10;;;;;;;;;;4954753;29;20185;-83
2021/07/28 12:17:05;;;;;;;2.22;2.13;;;;;;;;;;4927327;29;20288;-83
2021/07/28 12:19:37;;;;;;;2.90;2.50;;;;;;;;;;4933605;29;20229;-83
2021/07/28 12:22:09;;;;;;;2.75;2.55;;;;;;;;;;4933450;29;20194;-83
2021/07/28 12:24:45;;;;;;;2.15;1.98;;;;;;;;;;4932334;29;20210;-83
2021/07/28 12:28:01;;;;;;;2.35;2.20;;;;;;;;;;4932783;29;20212;-82
2021/07/28 12:30:31;;;;;;;2.03;1.92;;;;;;;;;;4932544;29;20779;-83
2021/07/28 12:33:05;;;;;;;2.45;2.25;;;;;;;;;;4932991;29;20186;-83
2021/07/28 12:35:45;;;;;;;2.65;2.45;;;;;;;;;;4937960;29;20194;-84
2021/07/28 12:38:18;;;;;;;2.17;2.08;;;;;;;;;;4920131;29;20664;-84
2021/07/28 12:40:51;;;;;;;2.25;2.15;;;;;;;;;;4919759;29;20254;-83
2021/07/28 12:43:21;;;;;;;1.92;1.83;;;;;;;;;;4922293;29;20191;-84
2021/07/28 12:45:55;;;;;;;2.33;2.22;;;;;;;;;;4938488;29;20209;-83
2021/07/28 12:48:22;;;;;;;4.10;2.20;;;;;;;;;;4938526;29;20178;-83
2021/07/28 12:50:50;;;;;;;1.98;1.88;;;;;;;;;;4938561;29;20255;-81
2021/07/28 12:53:18;;;;;;;1.73;1.63;;;;;;;;;;4938007;29;20190;-84
2021/07/28 12:55:45;;;;;;;2.00;1.90;;;;;;;;;;4938189;29;20193;-83
2021/07/28 12:58:13;;;;;;;1.48;1.38;;;;;;;;;;4938557;29;20197;-84
2021/07/28 13:00:41;;;;;;;1.80;1.70;;;;;;;;;;4937932;29;20874;-83
2021/07/28 13:03:12;;;;;;;1.50;1.40;;;;;;;;;;4938230;29;20222;-84
2021/07/28 13:05:42;;;;;;;1.70;1.60;;;;;;;;;;4938134;29;20213;-83
2021/07/28 13:08:11;;;;;;;1.58;1.48;;;;;;;;;;4938186;29;20200;-83
2021/07/28 13:10:40;;;;;;;1.65;1.55;;;;;;;;;;4938117;29;20233;-84
2021/07/28 13:13:09;;;;;;;1.70;1.60;;;;;;;;;;4938605;29;20193;-83
2021/07/28 13:15:42;;;;;;;1.75;1.65;;;;;;;;;;4937451;29;20201;-84
2021/07/28 13:18:11;;;;;;;2.63;2.42;;;;;;;;;;4937949;29;20776;-83
2021/07/28 13:20:38;;;;;;;2.55;2.35;;;;;;;;;;4937988;29;20232;-85
2021/07/28 13:23:06;;;;;;;2.10;1.95;;;;;;;;;;4937993;29;20202;-83
2021/07/28 13:25:34;;;;;;;2.78;1.92;;;;;;;;;;4938126;29;20202;-83
2021/07/28 13:28:03;;;;;;;1.67;1.58;;;;;;;;;;4937753;29;20206;-83
2021/07/28 13:30:32;;;;;;;2.03;1.92;;;;;;;;;;4937378;29;20750;-82
2021/07/28 13:33:01;;;;;;;2.05;1.95;;;;;;;;;;4937432;29;20209;-83
2021/07/28 13:35:28;;;;;;;1.88;1.77;;;;;;;;;;4937590;29;20202;-84
2021/07/28 13:37:56;;;;;;;1.65;1.55;;;;;;;;;;4937945;29;20233;-84
2021/07/28 13:40:24;;;;;;;2.05;1.95;;;;;;;;;;4936998;29;20712;-82
2021/07/28 13:42:53;;;;;;;2.08;1.80;;;;;;;;;;4937492;29;20202;-82
2021/07/28 13:45:22;;;;;;;2.28;2.17;;;;;;;;;;4937084;29;20285;-83
2021/07/28 13:47:50;;;;;;;2.40;2.20;;;;;;;;;;4936820;29;20284;-83
2021/07/28 13:50:20;;;;;;;2.40;2.20;;;;;;;;;;4937120;29;21063;-84
2021/07/28 13:52:49;;;;;;;1.95;1.85;;;;;;;;;;4937334;29;20217;-84
2021/07/28 13:55:16;;;;;;;1.98;1.88;;;;;;;;;;4937254;29;20201;-83
2021/07/28 13:57:44;;;;;;;2.50;2.30;;;;;;;;;;4936843;29;20926;-83
2021/07/28 14:00:15;;;;;;;1.65;1.55;;;;;;;;;;4936949;29;20265;-83
2021/07/28 14:02:42;;;;;;;2.60;2.10;;;;;;;;;;4937533;29;20193;-83
2021/07/28 14:05:11;;;;;;;2.85;2.63;;;;;;;;;;4937053;29;20202;-84
2021/07/28 14:07:40;;;;;;;2.08;1.98;;;;;;;;;;4937081;29;20641;-83
2021/07/28 14:10:08;;;;;;;2.58;2.38;;;;;;;;;;4937008;29;20218;-83
2021/07/28 14:12:37;;;;;;;2.05;1.95;;;;;;;;;;4937322;29;20201;-82
2021/07/28 14:15:05;;;;;;;2.63;2.42;;;;;;;;;;4936982;29;20223;-82
2021/07/28 14:17:33;;;;;;;2.28;2.17;;;;;;;;;;4936937;29;20205;-83
2021/07/28 14:20:01;;;;;;;2.70;2.40;;;;;;;;;;4936965;29;20233;-82
2021/07/28 14:22:28;;;;;;;1.92;1.83;;;;;;;;;;4937080;29;20202;-83
2021/07/28 14:24:57;;;;;;;2.20;2.00;;;;;;;;;;4936836;29;20216;-83
2021/07/28 14:27:24;;;;;;;3.45;2.13;;;;;;;;;;4936685;29;20217;-82
2021/07/28 14:29:52;;;;;;;2.65;2.25;;;;;;;;;;4937048;29;20225;-84
2021/07/28 14:32:19;;;;;;;2.25;2.00;;;;;;;;;;4937842;29;20209;-85
2021/07/28 14:34:46;;;;;;;2.33;2.20;;;;;;;;;;4937808;29;20202;-84
2021/07/28 14:37:15;;;;;;;2.22;2.13;;;;;;;;;;4937624;29;20198;-84
2021/07/28 14:39:43;;;;;;;1.88;1.77;;;;;;;;;;4937456;29;20229;-84
2021/07/28 14:42:12;;;;;;;1.65;1.55;;;;;;;;;;4937762;29;20186;-84
2021/07/28 14:44:39;;;;;;;2.38;1.60;;;;;;;;;;4937930;29;20190;-84
2021/07/28 14:47:07;;;;;;;1.40;1.30;;;;;;;;;;4937153;29;20220;-85
2021/07/28 14:49:34;;;;;;;1.48;1.38;;;;;;;;;;4936771;29;20246;-85
2021/07/28 14:52:02;;;;;;;1.50;1.40;;;;;;;;;;4937930;29;20197;-85
2021/07/28 14:54:29;;;;;;;1.58;1.48;;;;;;;;;;4937980;29;20672;-84
2021/07/28 14:56:57;;;;;;;1.33;1.23;;;;;;;;;;4937590;29;20213;-84
2021/07/28 14:59:25;;;;;;;1.10;1.10;;;;;;;;;;4938371;29;20253;-85